UAE935 OMDB-LLBG
Flight info
| Callsign | UAE935 |
|---|---|
| Flight time | 2h 55m |
| Altitude | 30000 |
| Route | SENPA N571 ALPOB L768 AAR V45 TRF R652 OBROD Q163 GENEX L53 QAA DCT OSAMA DCT RALNA N134 SALAM |
| Aircraft | B77W/H-SDE1E2E3FGHIJ2J3J4J5M1RWXYZ/LB1D1 |
Departure
| Time | 2026-04-26 09:42 |
|---|---|
| Airport | Dubai International Airport (OMDB) |
Arrival
| Time | 2026-04-26 12:37 |
|---|---|
| Airport | Ben Gurion International Airport (LLBG) |
| Time | Latitude | Longitude | Altitude | Speed | Heading |
|---|---|---|---|---|---|
| 2026-04-26 08:59 | 25.24630 | 55.36365 | 30 ft | 0 kts | 31° |
| 2026-04-26 09:21 | 25.24629 | 55.36365 | 26 ft | 1 kts | 31° |
| 2026-04-26 09:21 | 25.24609 | 55.36351 | 31 ft | 3 kts | 31° |
| 2026-04-26 09:21 | 25.24589 | 55.36339 | 31 ft | 4 kts | 18° |
| 2026-04-26 09:21 | 25.24563 | 55.36335 | 31 ft | 4 kts | 347° |
| 2026-04-26 09:22 | 25.24541 | 55.36347 | 31 ft | 4 kts | 313° |
| 2026-04-26 09:22 | 25.24526 | 55.36369 | 31 ft | 4 kts | 301° |
| 2026-04-26 09:22 | 25.24512 | 55.36394 | 31 ft | 3 kts | 301° |
| 2026-04-26 09:22 | 25.24511 | 55.36396 | 31 ft | 0 kts | 301° |
| 2026-04-26 09:25 | 25.24526 | 55.36368 | 27 ft | 10 kts | 301° |
| 2026-04-26 09:25 | 25.24585 | 55.36263 | 29 ft | 20 kts | 302° |
| 2026-04-26 09:26 | 25.24657 | 55.36134 | 29 ft | 20 kts | 301° |
| 2026-04-26 09:26 | 25.24730 | 55.36005 | 29 ft | 20 kts | 302° |
| 2026-04-26 09:26 | 25.24802 | 55.35878 | 30 ft | 20 kts | 302° |
| 2026-04-26 09:26 | 25.24875 | 55.35749 | 31 ft | 20 kts | 303° |
| 2026-04-26 09:27 | 25.24957 | 55.35624 | 29 ft | 21 kts | 304° |
| 2026-04-26 09:27 | 25.25039 | 55.35481 | 31 ft | 23 kts | 302° |
| 2026-04-26 09:27 | 25.25129 | 55.35322 | 29 ft | 25 kts | 303° |
| 2026-04-26 09:27 | 25.25235 | 55.35158 | 30 ft | 27 kts | 303° |
| 2026-04-26 09:28 | 25.25337 | 55.34977 | 30 ft | 26 kts | 301° |
| 2026-04-26 09:28 | 25.25480 | 55.34909 | 30 ft | 24 kts | 25° |
| 2026-04-26 09:28 | 25.25599 | 55.34987 | 31 ft | 10 kts | 31° |
| 2026-04-26 09:28 | 25.25608 | 55.34993 | 30 ft | 0 kts | 31° |
| 2026-04-26 09:29 | 25.25609 | 55.34993 | 30 ft | 0 kts | 31° |
| 2026-04-26 09:29 | 25.25609 | 55.34994 | 30 ft | 0 kts | 31° |
| 2026-04-26 09:31 | 25.25617 | 55.34999 | 35 ft | 7 kts | 31° |
| 2026-04-26 09:32 | 25.25711 | 55.35061 | 29 ft | 18 kts | 31° |
| 2026-04-26 09:32 | 25.25746 | 55.35143 | 27 ft | 12 kts | 101° |
| 2026-04-26 09:32 | 25.25780 | 55.35220 | 29 ft | 12 kts | 34° |
| 2026-04-26 09:32 | 25.25869 | 55.35281 | 32 ft | 22 kts | 31° |
| 2026-04-26 09:33 | 25.25975 | 55.35370 | 26 ft | 1 kts | 55° |
| 2026-04-26 09:33 | 25.25976 | 55.35372 | 26 ft | 0 kts | 55° |
| 2026-04-26 09:34 | 25.25996 | 55.35405 | 26 ft | 16 kts | 62° |
| 2026-04-26 09:35 | 25.25971 | 55.35588 | 27 ft | 30 kts | 120° |
| 2026-04-26 09:35 | 25.25863 | 55.35782 | 27 ft | 28 kts | 122° |
| 2026-04-26 09:35 | 25.25760 | 55.35963 | 27 ft | 28 kts | 121° |
| 2026-04-26 09:35 | 25.25658 | 55.36145 | 27 ft | 28 kts | 122° |
| 2026-04-26 09:36 | 25.25556 | 55.36328 | 27 ft | 28 kts | 121° |
| 2026-04-26 09:36 | 25.25453 | 55.36510 | 27 ft | 28 kts | 122° |
| 2026-04-26 09:36 | 25.25352 | 55.36692 | 26 ft | 28 kts | 122° |
| 2026-04-26 09:36 | 25.25251 | 55.36870 | 27 ft | 28 kts | 122° |
| 2026-04-26 09:37 | 25.25147 | 55.37052 | 28 ft | 28 kts | 122° |
| 2026-04-26 09:37 | 25.25045 | 55.37234 | 28 ft | 28 kts | 122° |
| 2026-04-26 09:37 | 25.24944 | 55.37416 | 28 ft | 28 kts | 122° |
| 2026-04-26 09:37 | 25.24843 | 55.37598 | 28 ft | 28 kts | 121° |
| 2026-04-26 09:38 | 25.24744 | 55.37771 | 27 ft | 23 kts | 122° |
| 2026-04-26 09:38 | 25.24717 | 55.37847 | 27 ft | 8 kts | 82° |
| 2026-04-26 09:38 | 25.24729 | 55.37872 | 27 ft | 0 kts | 48° |
| 2026-04-26 09:39 | 25.24730 | 55.37872 | 27 ft | 0 kts | 48° |
| 2026-04-26 09:40 | 25.24732 | 55.37875 | 27 ft | 2 kts | 48° |
| 2026-04-26 09:40 | 25.24789 | 55.37923 | 29 ft | 16 kts | 33° |
| 2026-04-26 09:40 | 25.24847 | 55.37940 | 30 ft | 7 kts | 333° |
| 2026-04-26 09:41 | 25.24901 | 55.37856 | 31 ft | 28 kts | 303° |
| 2026-04-26 09:41 | 25.25136 | 55.37433 | 32 ft | 102 kts | 301° |
| 2026-04-26 09:41 | 25.25628 | 55.36558 | 32 ft | 163 kts | 303° |
| 2026-04-26 09:41 | 25.26261 | 55.35421 | 422 ft | 177 kts | 302° |
| 2026-04-26 09:42 | 25.26880 | 55.34223 | 1059 ft | 181 kts | 301° |
| 2026-04-26 09:42 | 25.27548 | 55.32998 | 1611 ft | 197 kts | 303° |
| 2026-04-26 09:42 | 25.28329 | 55.31622 | 1856 ft | 227 kts | 303° |
| 2026-04-26 09:42 | 25.29213 | 55.30056 | 2273 ft | 248 kts | 301° |
| 2026-04-26 09:43 | 25.29740 | 55.28240 | 2912 ft | 259 kts | 276° |
| 2026-04-26 09:43 | 25.29830 | 55.26244 | 3618 ft | 262 kts | 276° |
| 2026-04-26 09:43 | 25.29973 | 55.24212 | 3999 ft | 267 kts | 276° |
| 2026-04-26 09:43 | 25.30134 | 55.22166 | 4478 ft | 268 kts | 276° |
| 2026-04-26 09:44 | 25.30298 | 55.20097 | 5308 ft | 271 kts | 276° |
| 2026-04-26 09:44 | 25.30441 | 55.18030 | 6221 ft | 270 kts | 271° |
| 2026-04-26 09:44 | 25.30354 | 55.15954 | 7037 ft | 271 kts | 266° |
| 2026-04-26 09:44 | 25.30166 | 55.13869 | 7851 ft | 274 kts | 265° |
| 2026-04-26 09:45 | 25.29971 | 55.11767 | 8644 ft | 276 kts | 265° |
| 2026-04-26 09:45 | 25.29785 | 55.09672 | 9440 ft | 279 kts | 265° |
| 2026-04-26 09:45 | 25.29604 | 55.07527 | 10200 ft | 282 kts | 265° |
| 2026-04-26 09:45 | 25.29422 | 55.05304 | 10605 ft | 302 kts | 265° |
| 2026-04-26 09:46 | 25.29231 | 55.02886 | 10790 ft | 329 kts | 265° |
| 2026-04-26 09:46 | 25.29027 | 55.00272 | 10985 ft | 355 kts | 265° |
| 2026-04-26 09:46 | 25.28811 | 54.97498 | 11498 ft | 368 kts | 265° |
| 2026-04-26 09:46 | 25.28592 | 54.94649 | 12253 ft | 376 kts | 265° |
| 2026-04-26 09:47 | 25.28464 | 54.91749 | 13141 ft | 380 kts | 268° |
| 2026-04-26 09:47 | 25.28403 | 54.88813 | 13998 ft | 384 kts | 268° |
| 2026-04-26 09:47 | 25.28337 | 54.85884 | 14783 ft | 388 kts | 268° |
| 2026-04-26 09:47 | 25.28258 | 54.82890 | 15604 ft | 392 kts | 268° |
| 2026-04-26 09:48 | 25.28171 | 54.79868 | 16407 ft | 395 kts | 268° |
| 2026-04-26 09:48 | 25.28080 | 54.76816 | 17206 ft | 400 kts | 268° |
| 2026-04-26 09:48 | 25.28135 | 54.73734 | 17986 ft | 404 kts | 278° |
| 2026-04-26 09:48 | 25.28818 | 54.70705 | 18683 ft | 409 kts | 286° |
| 2026-04-26 09:49 | 25.29667 | 54.67701 | 19370 ft | 412 kts | 286° |
| 2026-04-26 09:49 | 25.30496 | 54.64659 | 20079 ft | 415 kts | 285° |
| 2026-04-26 09:49 | 25.31299 | 54.61580 | 20795 ft | 418 kts | 284° |
| 2026-04-26 09:49 | 25.32074 | 54.58518 | 21488 ft | 421 kts | 283° |
| 2026-04-26 09:50 | 25.32857 | 54.55387 | 22186 ft | 425 kts | 283° |
| 2026-04-26 09:50 | 25.33652 | 54.52231 | 22866 ft | 428 kts | 283° |
| 2026-04-26 09:50 | 25.34500 | 54.49054 | 23503 ft | 432 kts | 283° |
| 2026-04-26 09:50 | 25.35374 | 54.45863 | 24034 ft | 435 kts | 283° |
| 2026-04-26 09:51 | 25.36256 | 54.42656 | 24596 ft | 437 kts | 284° |
| 2026-04-26 09:51 | 25.37139 | 54.39426 | 25163 ft | 439 kts | 284° |
| 2026-04-26 09:51 | 25.38019 | 54.36183 | 25714 ft | 442 kts | 284° |
| 2026-04-26 09:51 | 25.38901 | 54.32920 | 26231 ft | 444 kts | 284° |
| 2026-04-26 09:52 | 25.39774 | 54.29683 | 26743 ft | 447 kts | 284° |
| 2026-04-26 09:52 | 25.41484 | 54.23048 | 27745 ft | 451 kts | 283° |
| 2026-04-26 09:52 | 25.42299 | 54.19691 | 28209 ft | 453 kts | 283° |
| 2026-04-26 09:53 | 25.43119 | 54.16313 | 28655 ft | 455 kts | 283° |
| 2026-04-26 09:53 | 25.43951 | 54.12926 | 29104 ft | 457 kts | 283° |
| 2026-04-26 09:53 | 25.44789 | 54.09529 | 29529 ft | 459 kts | 283° |
| 2026-04-26 09:53 | 25.45627 | 54.06110 | 29807 ft | 463 kts | 283° |
| 2026-04-26 09:54 | 25.47299 | 53.99242 | 29874 ft | 464 kts | 283° |
| 2026-04-26 09:54 | 25.48963 | 53.92394 | 29882 ft | 460 kts | 283° |
| 2026-04-26 09:55 | 25.50621 | 53.85552 | 29886 ft | 460 kts | 283° |
| 2026-04-26 09:55 | 25.52278 | 53.78707 | 29885 ft | 461 kts | 283° |
| 2026-04-26 09:56 | 25.53916 | 53.71896 | 29882 ft | 461 kts | 283° |
| 2026-04-26 09:56 | 25.55540 | 53.65032 | 29896 ft | 461 kts | 282° |
| 2026-04-26 09:57 | 25.57160 | 53.58163 | 29881 ft | 460 kts | 282° |
| 2026-04-26 09:57 | 25.58776 | 53.51308 | 29887 ft | 460 kts | 282° |
| 2026-04-26 09:58 | 25.60388 | 53.44462 | 29887 ft | 459 kts | 282° |
| 2026-04-26 09:58 | 25.61987 | 53.37667 | 29887 ft | 459 kts | 282° |
| 2026-04-26 09:59 | 25.63332 | 53.31984 | 29889 ft | 459 kts | 282° |
| 2026-04-26 09:59 | 25.65219 | 53.23996 | 29886 ft | 459 kts | 282° |
| 2026-04-26 10:00 | 25.66831 | 53.17150 | 29912 ft | 459 kts | 282° |
| 2026-04-26 10:00 | 25.68427 | 53.10354 | 29899 ft | 459 kts | 282° |
| 2026-04-26 10:01 | 25.70094 | 53.03531 | 29895 ft | 459 kts | 285° |
| 2026-04-26 10:01 | 25.72563 | 52.96979 | 29893 ft | 463 kts | 294° |
| 2026-04-26 10:02 | 25.75597 | 52.90678 | 29899 ft | 463 kts | 294° |
| 2026-04-26 10:02 | 25.78587 | 52.84409 | 29899 ft | 463 kts | 294° |
| 2026-04-26 10:03 | 25.81576 | 52.78083 | 29899 ft | 463 kts | 294° |
| 2026-04-26 10:03 | 25.84557 | 52.71752 | 29900 ft | 463 kts | 294° |
| 2026-04-26 10:04 | 25.87533 | 52.65426 | 29902 ft | 462 kts | 294° |
| 2026-04-26 10:04 | 25.90479 | 52.59137 | 29901 ft | 462 kts | 294° |
| 2026-04-26 10:05 | 25.93323 | 52.52738 | 29901 ft | 461 kts | 293° |
| 2026-04-26 10:05 | 25.96139 | 52.46333 | 29915 ft | 462 kts | 292° |
| 2026-04-26 10:06 | 25.98974 | 52.39936 | 29907 ft | 461 kts | 292° |
| 2026-04-26 10:06 | 26.01818 | 52.33544 | 29906 ft | 461 kts | 292° |
| 2026-04-26 10:07 | 26.04645 | 52.27196 | 29900 ft | 461 kts | 293° |
| 2026-04-26 10:07 | 26.07482 | 52.20809 | 29908 ft | 460 kts | 293° |
| 2026-04-26 10:08 | 26.10314 | 52.14423 | 29916 ft | 460 kts | 292° |
| 2026-04-26 10:08 | 26.13140 | 52.08038 | 29909 ft | 460 kts | 292° |
| 2026-04-26 10:09 | 26.15939 | 52.01707 | 29898 ft | 459 kts | 292° |
| 2026-04-26 10:09 | 26.18780 | 51.95342 | 29911 ft | 459 kts | 293° |
| 2026-04-26 10:10 | 26.21637 | 51.88979 | 29912 ft | 459 kts | 292° |
| 2026-04-26 10:10 | 26.24453 | 51.82594 | 29929 ft | 459 kts | 292° |
| 2026-04-26 10:11 | 26.27264 | 51.76266 | 29911 ft | 458 kts | 293° |
| 2026-04-26 10:11 | 26.30119 | 51.69876 | 30238 ft | 462 kts | 293° |
| 2026-04-26 10:12 | 26.31545 | 51.66678 | 30735 ft | 458 kts | 293° |
| 2026-04-26 10:12 | 26.32952 | 51.63520 | 31314 ft | 452 kts | 293° |
| 2026-04-26 10:12 | 26.34340 | 51.60400 | 31923 ft | 446 kts | 293° |
| 2026-04-26 10:12 | 26.35707 | 51.57324 | 32501 ft | 440 kts | 293° |
| 2026-04-26 10:13 | 26.37057 | 51.54279 | 33015 ft | 437 kts | 292° |
| 2026-04-26 10:13 | 26.38270 | 51.51240 | 33494 ft | 432 kts | 288° |
| 2026-04-26 10:13 | 26.39264 | 51.48101 | 33989 ft | 427 kts | 287° |
| 2026-04-26 10:13 | 26.40235 | 51.44982 | 34348 ft | 425 kts | 287° |
| 2026-04-26 10:14 | 26.41219 | 51.41867 | 34590 ft | 427 kts | 287° |
| 2026-04-26 10:14 | 26.42213 | 51.38741 | 34812 ft | 427 kts | 287° |
| 2026-04-26 10:14 | 26.43210 | 51.35622 | 35102 ft | 427 kts | 288° |
| 2026-04-26 10:14 | 26.44228 | 51.32509 | 35378 ft | 426 kts | 288° |
| 2026-04-26 10:15 | 26.45248 | 51.29405 | 35606 ft | 427 kts | 288° |
| 2026-04-26 10:15 | 26.46267 | 51.26290 | 35827 ft | 428 kts | 288° |
| 2026-04-26 10:15 | 26.48268 | 51.20037 | 35905 ft | 431 kts | 287° |
| 2026-04-26 10:16 | 26.50253 | 51.13770 | 35935 ft | 425 kts | 287° |
| 2026-04-26 10:16 | 26.52213 | 51.07583 | 35911 ft | 421 kts | 287° |
| 2026-04-26 10:17 | 26.54144 | 51.01488 | 35927 ft | 418 kts | 287° |
| 2026-04-26 10:17 | 26.56081 | 50.95362 | 35929 ft | 419 kts | 287° |
| 2026-04-26 10:18 | 26.58017 | 50.89207 | 35934 ft | 421 kts | 287° |
| 2026-04-26 10:18 | 26.59919 | 50.83002 | 35929 ft | 423 kts | 287° |
| 2026-04-26 10:19 | 26.61826 | 50.76760 | 35955 ft | 426 kts | 287° |
| 2026-04-26 10:19 | 26.63734 | 50.70526 | 35932 ft | 427 kts | 287° |
| 2026-04-26 10:20 | 26.65327 | 50.65262 | 35931 ft | 427 kts | 286° |
| 2026-04-26 10:20 | 26.67498 | 50.57944 | 35936 ft | 426 kts | 286° |
| 2026-04-26 10:21 | 26.69364 | 50.51658 | 35936 ft | 426 kts | 286° |
| 2026-04-26 10:21 | 26.71175 | 50.45370 | 35937 ft | 424 kts | 284° |
| 2026-04-26 10:22 | 26.72778 | 50.39066 | 35942 ft | 424 kts | 284° |
| 2026-04-26 10:22 | 26.74393 | 50.32733 | 35944 ft | 423 kts | 284° |
| 2026-04-26 10:23 | 26.76032 | 50.26420 | 35935 ft | 422 kts | 285° |
| 2026-04-26 10:23 | 26.77857 | 50.20221 | 35940 ft | 422 kts | 287° |
| 2026-04-26 10:24 | 26.79751 | 50.14012 | 35933 ft | 422 kts | 286° |
| 2026-04-26 10:24 | 26.81611 | 50.07790 | 35934 ft | 421 kts | 286° |
| 2026-04-26 10:25 | 26.83458 | 50.01559 | 35958 ft | 422 kts | 286° |
| 2026-04-26 10:25 | 26.85304 | 49.95326 | 35942 ft | 422 kts | 286° |
| 2026-04-26 10:26 | 26.87137 | 49.89133 | 35941 ft | 422 kts | 286° |
| 2026-04-26 10:26 | 26.88977 | 49.82898 | 35937 ft | 421 kts | 286° |
| 2026-04-26 10:27 | 26.90815 | 49.76663 | 35939 ft | 421 kts | 286° |
| 2026-04-26 10:27 | 26.92648 | 49.70431 | 35934 ft | 421 kts | 286° |
| 2026-04-26 10:28 | 26.94480 | 49.64191 | 35967 ft | 421 kts | 286° |
| 2026-04-26 10:28 | 26.96297 | 49.57991 | 35943 ft | 421 kts | 285° |
| 2026-04-26 10:29 | 26.98122 | 49.51750 | 35932 ft | 421 kts | 285° |
| 2026-04-26 10:29 | 26.99943 | 49.45516 | 35939 ft | 421 kts | 285° |
| 2026-04-26 10:30 | 27.02114 | 49.39411 | 35947 ft | 423 kts | 292° |
| 2026-04-26 10:30 | 27.04965 | 49.33668 | 35952 ft | 425 kts | 295° |
| 2026-04-26 10:31 | 27.07880 | 49.27909 | 35940 ft | 425 kts | 295° |
| 2026-04-26 10:31 | 27.10781 | 49.22138 | 35946 ft | 425 kts | 295° |
| 2026-04-26 10:32 | 27.13679 | 49.16354 | 35952 ft | 425 kts | 295° |
| 2026-04-26 10:32 | 27.16554 | 49.10606 | 35952 ft | 425 kts | 295° |
| 2026-04-26 10:33 | 27.19450 | 49.04813 | 35962 ft | 426 kts | 295° |
| 2026-04-26 10:33 | 27.22349 | 48.99005 | 35959 ft | 426 kts | 295° |
| 2026-04-26 10:34 | 27.25254 | 48.93198 | 35952 ft | 426 kts | 295° |
| 2026-04-26 10:34 | 27.28135 | 48.87435 | 35955 ft | 426 kts | 295° |
| 2026-04-26 10:35 | 27.31035 | 48.81624 | 35952 ft | 426 kts | 295° |
| 2026-04-26 10:35 | 27.33929 | 48.75816 | 35965 ft | 426 kts | 295° |
| 2026-04-26 10:36 | 27.36819 | 48.70008 | 35961 ft | 426 kts | 295° |
| 2026-04-26 10:36 | 27.39691 | 48.64227 | 35953 ft | 426 kts | 295° |
| 2026-04-26 10:37 | 27.42575 | 48.58415 | 35953 ft | 425 kts | 295° |
| 2026-04-26 10:37 | 27.45455 | 48.52603 | 35981 ft | 425 kts | 295° |
| 2026-04-26 10:38 | 27.48332 | 48.46788 | 35970 ft | 425 kts | 295° |
| 2026-04-26 10:38 | 27.51191 | 48.41002 | 35963 ft | 425 kts | 294° |
| 2026-04-26 10:39 | 27.54061 | 48.35186 | 35960 ft | 425 kts | 294° |
| 2026-04-26 10:39 | 27.56928 | 48.29369 | 35964 ft | 424 kts | 294° |
| 2026-04-26 10:40 | 27.59789 | 48.23548 | 35962 ft | 425 kts | 294° |
| 2026-04-26 10:40 | 27.62623 | 48.17764 | 35967 ft | 424 kts | 294° |
| 2026-04-26 10:41 | 27.65475 | 48.11936 | 35972 ft | 424 kts | 294° |
| 2026-04-26 10:41 | 27.68323 | 48.06109 | 35972 ft | 424 kts | 294° |
| 2026-04-26 10:42 | 27.70689 | 48.01265 | 35985 ft | 424 kts | 294° |
| 2026-04-26 10:42 | 27.74000 | 47.94481 | 35989 ft | 425 kts | 294° |
| 2026-04-26 10:43 | 27.76849 | 47.88634 | 35988 ft | 425 kts | 294° |
| 2026-04-26 10:43 | 27.79694 | 47.82787 | 35991 ft | 425 kts | 294° |
| 2026-04-26 10:44 | 27.82540 | 47.76932 | 35997 ft | 425 kts | 294° |
| 2026-04-26 10:44 | 27.85057 | 47.70986 | 36008 ft | 420 kts | 287° |
| 2026-04-26 10:45 | 27.86962 | 47.64754 | 36002 ft | 419 kts | 285° |
| 2026-04-26 10:45 | 27.88877 | 47.58532 | 36007 ft | 419 kts | 285° |
| 2026-04-26 10:46 | 27.90798 | 47.52312 | 36001 ft | 419 kts | 285° |
| 2026-04-26 10:46 | 27.92702 | 47.46141 | 36005 ft | 418 kts | 285° |
| 2026-04-26 10:47 | 27.94613 | 47.39933 | 36012 ft | 418 kts | 285° |
| 2026-04-26 10:47 | 27.96521 | 47.33724 | 36011 ft | 418 kts | 285° |
| 2026-04-26 10:48 | 27.98102 | 47.28569 | 36004 ft | 417 kts | 285° |
| 2026-04-26 10:48 | 28.00308 | 47.21363 | 36008 ft | 417 kts | 285° |
| 2026-04-26 10:49 | 28.02201 | 47.15170 | 36012 ft | 416 kts | 285° |
| 2026-04-26 10:49 | 28.04088 | 47.08982 | 36020 ft | 416 kts | 285° |
| 2026-04-26 10:50 | 28.05656 | 47.03832 | 36011 ft | 416 kts | 285° |
| 2026-04-26 10:50 | 28.07536 | 46.97645 | 36010 ft | 416 kts | 285° |
| 2026-04-26 10:51 | 28.10657 | 46.87369 | 36010 ft | 415 kts | 285° |
| 2026-04-26 10:52 | 28.12322 | 46.82278 | 36010 ft | 415 kts | 286° |
| 2026-04-26 10:52 | 28.14391 | 46.76171 | 36020 ft | 415 kts | 286° |
| 2026-04-26 10:53 | 28.16443 | 46.70069 | 36011 ft | 414 kts | 286° |
| 2026-04-26 10:53 | 28.18808 | 46.62969 | 36010 ft | 414 kts | 286° |
| 2026-04-26 10:54 | 28.21505 | 46.54835 | 36011 ft | 414 kts | 286° |
| 2026-04-26 10:54 | 28.23528 | 46.48718 | 36015 ft | 414 kts | 286° |
| 2026-04-26 10:55 | 28.25550 | 46.42596 | 36014 ft | 415 kts | 286° |
| 2026-04-26 10:55 | 28.27570 | 46.36468 | 36008 ft | 415 kts | 286° |
| 2026-04-26 10:56 | 28.29577 | 46.30371 | 36015 ft | 415 kts | 286° |
| 2026-04-26 10:56 | 28.31597 | 46.24224 | 36022 ft | 416 kts | 286° |
| 2026-04-26 10:57 | 28.33615 | 46.18071 | 36028 ft | 417 kts | 285° |
| 2026-04-26 10:57 | 28.35635 | 46.11904 | 36019 ft | 416 kts | 285° |
| 2026-04-26 10:58 | 28.37797 | 46.05836 | 36024 ft | 418 kts | 288° |
| 2026-04-26 10:58 | 28.40103 | 45.99773 | 36021 ft | 418 kts | 288° |
| 2026-04-26 10:59 | 28.42397 | 45.93702 | 36002 ft | 418 kts | 288° |
| 2026-04-26 10:59 | 28.44667 | 45.87619 | 36004 ft | 418 kts | 288° |
| 2026-04-26 11:00 | 28.46922 | 45.81540 | 36002 ft | 418 kts | 288° |
| 2026-04-26 11:00 | 28.49159 | 45.75494 | 36005 ft | 417 kts | 287° |
| 2026-04-26 11:01 | 28.51407 | 45.69407 | 35984 ft | 418 kts | 287° |
| 2026-04-26 11:01 | 28.53652 | 45.63320 | 35999 ft | 418 kts | 287° |
| 2026-04-26 11:02 | 28.55897 | 45.57227 | 35995 ft | 418 kts | 287° |
| 2026-04-26 11:02 | 28.58122 | 45.51174 | 35998 ft | 418 kts | 287° |
| 2026-04-26 11:03 | 28.60362 | 45.45074 | 35987 ft | 418 kts | 287° |
| 2026-04-26 11:03 | 28.62597 | 45.38976 | 36009 ft | 417 kts | 287° |
| 2026-04-26 11:04 | 28.64829 | 45.32876 | 35999 ft | 418 kts | 287° |
| 2026-04-26 11:04 | 28.67045 | 45.26807 | 35990 ft | 418 kts | 287° |
| 2026-04-26 11:05 | 28.69274 | 45.20697 | 35986 ft | 417 kts | 287° |
| 2026-04-26 11:05 | 28.71496 | 45.14595 | 35981 ft | 417 kts | 287° |
| 2026-04-26 11:06 | 28.73716 | 45.08486 | 35990 ft | 417 kts | 287° |
| 2026-04-26 11:06 | 28.75918 | 45.02416 | 35990 ft | 417 kts | 287° |
| 2026-04-26 11:07 | 28.78133 | 44.96303 | 35990 ft | 417 kts | 287° |
| 2026-04-26 11:07 | 28.80348 | 44.90179 | 35983 ft | 418 kts | 287° |
| 2026-04-26 11:08 | 28.82556 | 44.84061 | 35980 ft | 417 kts | 287° |
| 2026-04-26 11:08 | 28.84773 | 44.77939 | 35980 ft | 418 kts | 288° |
| 2026-04-26 11:09 | 28.87503 | 44.72079 | 35980 ft | 424 kts | 295° |
| 2026-04-26 11:09 | 28.90887 | 44.66517 | 35984 ft | 427 kts | 298° |
| 2026-04-26 11:10 | 28.94328 | 44.60989 | 35992 ft | 427 kts | 298° |
| 2026-04-26 11:10 | 28.97754 | 44.55455 | 35983 ft | 427 kts | 298° |
| 2026-04-26 11:11 | 29.01149 | 44.49945 | 35977 ft | 427 kts | 297° |
| 2026-04-26 11:11 | 29.04558 | 44.44400 | 35975 ft | 426 kts | 297° |
| 2026-04-26 11:12 | 29.07962 | 44.38853 | 35969 ft | 426 kts | 297° |
| 2026-04-26 11:12 | 29.11366 | 44.33299 | 35972 ft | 426 kts | 297° |
| 2026-04-26 11:13 | 29.14765 | 44.27747 | 35977 ft | 426 kts | 297° |
| 2026-04-26 11:13 | 29.18139 | 44.22229 | 35986 ft | 426 kts | 297° |
| 2026-04-26 11:14 | 29.21535 | 44.16666 | 35961 ft | 426 kts | 297° |
| 2026-04-26 11:14 | 29.24925 | 44.11106 | 35955 ft | 426 kts | 297° |
| 2026-04-26 11:15 | 29.28317 | 44.05534 | 35961 ft | 427 kts | 297° |
| 2026-04-26 11:15 | 29.31687 | 43.99992 | 35955 ft | 427 kts | 297° |
| 2026-04-26 11:16 | 29.35079 | 43.94408 | 35943 ft | 427 kts | 297° |
| 2026-04-26 11:16 | 29.38463 | 43.88828 | 35931 ft | 426 kts | 297° |
| 2026-04-26 11:17 | 29.41840 | 43.83251 | 35928 ft | 426 kts | 297° |
| 2026-04-26 11:17 | 29.45195 | 43.77704 | 35933 ft | 426 kts | 297° |
| 2026-04-26 11:18 | 29.48569 | 43.72118 | 35922 ft | 426 kts | 297° |
| 2026-04-26 11:18 | 29.51940 | 43.66528 | 35924 ft | 426 kts | 297° |
| 2026-04-26 11:19 | 29.55307 | 43.60937 | 35928 ft | 426 kts | 297° |
| 2026-04-26 11:19 | 29.58652 | 43.55376 | 35918 ft | 426 kts | 297° |
| 2026-04-26 11:20 | 29.61450 | 43.50719 | 35912 ft | 426 kts | 297° |
| 2026-04-26 11:20 | 29.65271 | 43.44103 | 35914 ft | 424 kts | 295° |
| 2026-04-26 11:21 | 29.68430 | 43.38426 | 35920 ft | 424 kts | 295° |
| 2026-04-26 11:21 | 29.71615 | 43.32705 | 35917 ft | 425 kts | 295° |
| 2026-04-26 11:22 | 29.74808 | 43.26989 | 35917 ft | 425 kts | 295° |
| 2026-04-26 11:22 | 29.78008 | 43.21266 | 35937 ft | 425 kts | 295° |
| 2026-04-26 11:23 | 29.81205 | 43.15542 | 35925 ft | 425 kts | 295° |
| 2026-04-26 11:23 | 29.84383 | 43.09845 | 35917 ft | 425 kts | 295° |
| 2026-04-26 11:24 | 29.87577 | 43.04110 | 35921 ft | 425 kts | 295° |
| 2026-04-26 11:24 | 29.90769 | 42.98372 | 35918 ft | 425 kts | 295° |
| 2026-04-26 11:25 | 29.93958 | 42.92629 | 35919 ft | 425 kts | 295° |
| 2026-04-26 11:25 | 29.97126 | 42.86917 | 35926 ft | 426 kts | 295° |
| 2026-04-26 11:26 | 30.00315 | 42.81157 | 35922 ft | 426 kts | 295° |
| 2026-04-26 11:26 | 30.03504 | 42.75391 | 35917 ft | 426 kts | 295° |
| 2026-04-26 11:27 | 30.06689 | 42.69624 | 35921 ft | 426 kts | 295° |
| 2026-04-26 11:27 | 30.09852 | 42.63888 | 35920 ft | 426 kts | 295° |
| 2026-04-26 11:28 | 30.13031 | 42.58115 | 35932 ft | 426 kts | 295° |
| 2026-04-26 11:28 | 30.16213 | 42.52328 | 35922 ft | 427 kts | 295° |
| 2026-04-26 11:29 | 30.19392 | 42.46538 | 35918 ft | 427 kts | 295° |
| 2026-04-26 11:29 | 30.22568 | 42.40747 | 35920 ft | 427 kts | 295° |
| 2026-04-26 11:30 | 30.25207 | 42.35927 | 35931 ft | 427 kts | 295° |
| 2026-04-26 11:30 | 30.28895 | 42.29181 | 35923 ft | 427 kts | 295° |
| 2026-04-26 11:31 | 30.32069 | 42.23365 | 35920 ft | 427 kts | 295° |
| 2026-04-26 11:31 | 30.35237 | 42.17552 | 35933 ft | 427 kts | 295° |
| 2026-04-26 11:32 | 30.38386 | 42.11767 | 35927 ft | 428 kts | 295° |
| 2026-04-26 11:32 | 30.41557 | 42.05932 | 35928 ft | 428 kts | 295° |
| 2026-04-26 11:33 | 30.44723 | 42.00099 | 35925 ft | 428 kts | 295° |
| 2026-04-26 11:33 | 30.47886 | 41.94262 | 35918 ft | 428 kts | 295° |
| 2026-04-26 11:34 | 30.51028 | 41.88455 | 35919 ft | 428 kts | 295° |
| 2026-04-26 11:34 | 30.54185 | 41.82613 | 35926 ft | 428 kts | 295° |
| 2026-04-26 11:35 | 30.57340 | 41.76765 | 35938 ft | 428 kts | 295° |
| 2026-04-26 11:35 | 30.60496 | 41.70906 | 35927 ft | 428 kts | 295° |
| 2026-04-26 11:36 | 30.63627 | 41.65085 | 35922 ft | 428 kts | 295° |
| 2026-04-26 11:36 | 30.66780 | 41.59216 | 35921 ft | 428 kts | 295° |
| 2026-04-26 11:37 | 30.69931 | 41.53341 | 35933 ft | 428 kts | 295° |
| 2026-04-26 11:37 | 30.73079 | 41.47461 | 35919 ft | 429 kts | 295° |
| 2026-04-26 11:38 | 30.76227 | 41.41575 | 35919 ft | 428 kts | 295° |
| 2026-04-26 11:38 | 30.79347 | 41.35731 | 35921 ft | 428 kts | 295° |
| 2026-04-26 11:39 | 30.82485 | 41.29843 | 35926 ft | 428 kts | 295° |
| 2026-04-26 11:39 | 30.85624 | 41.23946 | 35913 ft | 428 kts | 295° |
| 2026-04-26 11:40 | 30.88756 | 41.18054 | 35912 ft | 428 kts | 295° |
| 2026-04-26 11:40 | 30.91573 | 41.12005 | 35936 ft | 422 kts | 288° |
| 2026-04-26 11:42 | 31.00094 | 40.86638 | 35930 ft | 422 kts | 286° |
| 2026-04-26 11:43 | 31.02233 | 40.80262 | 35926 ft | 423 kts | 286° |
| 2026-04-26 11:43 | 31.04358 | 40.73918 | 35923 ft | 423 kts | 286° |
| 2026-04-26 11:44 | 31.06493 | 40.67528 | 35922 ft | 423 kts | 286° |
| 2026-04-26 11:44 | 31.08628 | 40.61131 | 35928 ft | 423 kts | 285° |
| 2026-04-26 11:45 | 31.10756 | 40.54737 | 35926 ft | 423 kts | 285° |
| 2026-04-26 11:45 | 31.12866 | 40.48388 | 35925 ft | 423 kts | 285° |
| 2026-04-26 11:46 | 31.14989 | 40.41988 | 35938 ft | 423 kts | 285° |
| 2026-04-26 11:46 | 31.17108 | 40.35585 | 35931 ft | 423 kts | 285° |
| 2026-04-26 11:47 | 31.19224 | 40.29180 | 35936 ft | 423 kts | 285° |
| 2026-04-26 11:47 | 31.21338 | 40.22768 | 35952 ft | 423 kts | 285° |
| 2026-04-26 11:48 | 31.23435 | 40.16396 | 35931 ft | 423 kts | 285° |
| 2026-04-26 11:48 | 31.25543 | 40.09976 | 35930 ft | 423 kts | 285° |
| 2026-04-26 11:49 | 31.27650 | 40.03548 | 35928 ft | 423 kts | 285° |
| 2026-04-26 11:49 | 31.29754 | 39.97117 | 35939 ft | 424 kts | 285° |
| 2026-04-26 11:50 | 31.31843 | 39.90721 | 35940 ft | 424 kts | 285° |
| 2026-04-26 11:50 | 31.33944 | 39.84273 | 35940 ft | 424 kts | 285° |
| 2026-04-26 11:51 | 31.36044 | 39.77815 | 35954 ft | 425 kts | 285° |
| 2026-04-26 11:51 | 31.38141 | 39.71353 | 35947 ft | 425 kts | 285° |
| 2026-04-26 11:52 | 31.39881 | 39.65984 | 35941 ft | 425 kts | 285° |
| 2026-04-26 11:52 | 31.42309 | 39.58474 | 35943 ft | 424 kts | 285° |
| 2026-04-26 11:53 | 31.44398 | 39.52014 | 35950 ft | 424 kts | 285° |
| 2026-04-26 11:54 | 31.47549 | 39.42324 | 35946 ft | 425 kts | 285° |
| 2026-04-26 11:54 | 31.49646 | 39.35855 | 35950 ft | 425 kts | 285° |
| 2026-04-26 11:55 | 31.51726 | 39.29425 | 35969 ft | 425 kts | 285° |
| 2026-04-26 11:55 | 31.53819 | 39.22939 | 35960 ft | 425 kts | 285° |
| 2026-04-26 11:56 | 31.55909 | 39.16446 | 35961 ft | 426 kts | 285° |
| 2026-04-26 11:56 | 31.57998 | 39.09948 | 35976 ft | 426 kts | 285° |
| 2026-04-26 11:57 | 31.60082 | 39.03451 | 35955 ft | 426 kts | 285° |
| 2026-04-26 11:57 | 31.62146 | 38.97000 | 35977 ft | 425 kts | 285° |
| 2026-04-26 11:58 | 31.64220 | 38.90506 | 35993 ft | 425 kts | 285° |
| 2026-04-26 11:58 | 31.66290 | 38.84016 | 35998 ft | 425 kts | 285° |
| 2026-04-26 11:59 | 31.68178 | 38.77479 | 35991 ft | 418 kts | 276° |
| 2026-04-26 11:59 | 31.68633 | 38.70796 | 36003 ft | 413 kts | 267° |
| 2026-04-26 12:00 | 31.67900 | 38.64148 | 36034 ft | 411 kts | 257° |
| 2026-04-26 12:00 | 31.66603 | 38.57589 | 35994 ft | 413 kts | 257° |
| 2026-04-26 12:01 | 31.65307 | 38.51020 | 35985 ft | 414 kts | 257° |
| 2026-04-26 12:01 | 31.64032 | 38.44437 | 35961 ft | 414 kts | 257° |
| 2026-04-26 12:02 | 31.62774 | 38.37895 | 35951 ft | 413 kts | 257° |
| 2026-04-26 12:02 | 31.61509 | 38.31323 | 35954 ft | 413 kts | 257° |
| 2026-04-26 12:03 | 31.60240 | 38.24755 | 35958 ft | 413 kts | 257° |
| 2026-04-26 12:03 | 31.58969 | 38.18193 | 35973 ft | 412 kts | 257° |
| 2026-04-26 12:04 | 31.57705 | 38.11689 | 35958 ft | 412 kts | 257° |
| 2026-04-26 12:04 | 31.56429 | 38.05138 | 35952 ft | 412 kts | 257° |
| 2026-04-26 12:05 | 31.55150 | 37.98596 | 35936 ft | 411 kts | 257° |
| 2026-04-26 12:05 | 31.53872 | 37.92073 | 35958 ft | 411 kts | 257° |
| 2026-04-26 12:06 | 31.52597 | 37.85584 | 35943 ft | 412 kts | 257° |
| 2026-04-26 12:06 | 31.51308 | 37.79043 | 35944 ft | 412 kts | 257° |
| 2026-04-26 12:07 | 31.50060 | 37.72481 | 35942 ft | 413 kts | 260° |
| 2026-04-26 12:07 | 31.49467 | 37.65775 | 35940 ft | 416 kts | 266° |
| 2026-04-26 12:08 | 31.49468 | 37.58993 | 35893 ft | 417 kts | 268° |
| 2026-04-26 12:08 | 31.49474 | 37.52260 | 35911 ft | 416 kts | 268° |
| 2026-04-26 12:09 | 31.49467 | 37.45478 | 35923 ft | 416 kts | 268° |
| 2026-04-26 12:09 | 31.49451 | 37.38685 | 35918 ft | 417 kts | 268° |
| 2026-04-26 12:10 | 31.49432 | 37.31881 | 35911 ft | 418 kts | 268° |
| 2026-04-26 12:10 | 31.49409 | 37.25120 | 35914 ft | 418 kts | 267° |
| 2026-04-26 12:11 | 31.49382 | 37.18308 | 35919 ft | 418 kts | 267° |
| 2026-04-26 12:11 | 31.49352 | 37.11490 | 35909 ft | 418 kts | 267° |
| 2026-04-26 12:12 | 31.49503 | 37.04675 | 35918 ft | 420 kts | 273° |
| 2026-04-26 12:12 | 31.50482 | 36.97906 | 35941 ft | 423 kts | 278° |
| 2026-04-26 12:13 | 31.52179 | 36.91310 | 35929 ft | 427 kts | 284° |
| 2026-04-26 12:13 | 31.54149 | 36.84734 | 35902 ft | 428 kts | 284° |
| 2026-04-26 12:13 | 31.55131 | 36.81404 | 35059 ft | 429 kts | 284° |
| 2026-04-26 12:14 | 31.56077 | 36.78172 | 34271 ft | 415 kts | 284° |
| 2026-04-26 12:14 | 31.57009 | 36.74955 | 33349 ft | 418 kts | 284° |
| 2026-04-26 12:14 | 31.57935 | 36.71709 | 32436 ft | 421 kts | 283° |
| 2026-04-26 12:14 | 31.58864 | 36.68442 | 31502 ft | 424 kts | 283° |
| 2026-04-26 12:15 | 31.59788 | 36.65201 | 30733 ft | 424 kts | 283° |
| 2026-04-26 12:15 | 31.60722 | 36.61930 | 30041 ft | 422 kts | 283° |
| 2026-04-26 12:15 | 31.61667 | 36.58672 | 29246 ft | 421 kts | 283° |
| 2026-04-26 12:15 | 31.62618 | 36.55446 | 28515 ft | 417 kts | 283° |
| 2026-04-26 12:16 | 31.63560 | 36.52247 | 27867 ft | 413 kts | 283° |
| 2026-04-26 12:16 | 31.64489 | 36.49080 | 27215 ft | 409 kts | 283° |
| 2026-04-26 12:16 | 31.65397 | 36.45928 | 26545 ft | 406 kts | 282° |
| 2026-04-26 12:16 | 31.66269 | 36.42792 | 25910 ft | 402 kts | 282° |
| 2026-04-26 12:17 | 31.67124 | 36.39723 | 25286 ft | 400 kts | 282° |
| 2026-04-26 12:17 | 31.68008 | 36.36636 | 24666 ft | 398 kts | 282° |
| 2026-04-26 12:17 | 31.68895 | 36.33570 | 24045 ft | 396 kts | 282° |
| 2026-04-26 12:17 | 31.69779 | 36.30512 | 23397 ft | 395 kts | 282° |
| 2026-04-26 12:18 | 31.70657 | 36.27466 | 22697 ft | 392 kts | 283° |
| 2026-04-26 12:18 | 31.71527 | 36.24440 | 22085 ft | 389 kts | 283° |
| 2026-04-26 12:18 | 31.72387 | 36.21443 | 21462 ft | 386 kts | 282° |
| 2026-04-26 12:18 | 31.73240 | 36.18469 | 20917 ft | 382 kts | 283° |
| 2026-04-26 12:19 | 31.74097 | 36.15536 | 20341 ft | 380 kts | 284° |
| 2026-04-26 12:19 | 31.75080 | 36.12656 | 19775 ft | 378 kts | 287° |
| 2026-04-26 12:19 | 31.76080 | 36.09854 | 19215 ft | 377 kts | 287° |
| 2026-04-26 12:19 | 31.77101 | 36.07021 | 18647 ft | 375 kts | 287° |
| 2026-04-26 12:20 | 31.78115 | 36.04200 | 18035 ft | 374 kts | 288° |
| 2026-04-26 12:20 | 31.79122 | 36.01389 | 17403 ft | 372 kts | 288° |
| 2026-04-26 12:20 | 31.80121 | 35.98590 | 16826 ft | 370 kts | 288° |
| 2026-04-26 12:20 | 31.81108 | 35.95812 | 16259 ft | 368 kts | 288° |
| 2026-04-26 12:21 | 31.82091 | 35.93043 | 15701 ft | 365 kts | 288° |
| 2026-04-26 12:21 | 31.83052 | 35.90330 | 15163 ft | 363 kts | 288° |
| 2026-04-26 12:21 | 31.84019 | 35.87595 | 14602 ft | 362 kts | 288° |
| 2026-04-26 12:21 | 31.84981 | 35.84871 | 14077 ft | 360 kts | 288° |
| 2026-04-26 12:22 | 31.85941 | 35.82152 | 13491 ft | 360 kts | 288° |
| 2026-04-26 12:22 | 31.86898 | 35.79438 | 12912 ft | 359 kts | 288° |
| 2026-04-26 12:22 | 31.87851 | 35.76728 | 12352 ft | 358 kts | 288° |
| 2026-04-26 12:22 | 31.88801 | 35.74030 | 11797 ft | 357 kts | 288° |
| 2026-04-26 12:23 | 31.89750 | 35.71337 | 11267 ft | 356 kts | 288° |
| 2026-04-26 12:23 | 31.90693 | 35.68661 | 10952 ft | 348 kts | 288° |
| 2026-04-26 12:23 | 31.91604 | 35.66078 | 10784 ft | 337 kts | 288° |
| 2026-04-26 12:23 | 31.92482 | 35.63574 | 10609 ft | 323 kts | 287° |
| 2026-04-26 12:24 | 31.93074 | 35.61129 | 10467 ft | 307 kts | 275° |
| 2026-04-26 12:24 | 31.93232 | 35.58686 | 10347 ft | 293 kts | 267° |
| 2026-04-26 12:24 | 31.93271 | 35.56329 | 10229 ft | 284 kts | 267° |
| 2026-04-26 12:25 | 31.93391 | 35.51856 | 9967 ft | 263 kts | 275° |
| 2026-04-26 12:25 | 31.94013 | 35.49828 | 9766 ft | 265 kts | 291° |
| 2026-04-26 12:25 | 31.94864 | 35.47877 | 9563 ft | 272 kts | 291° |
| 2026-04-26 12:25 | 31.95724 | 35.45867 | 9323 ft | 277 kts | 291° |
| 2026-04-26 12:26 | 31.96588 | 35.43837 | 9090 ft | 278 kts | 291° |
| 2026-04-26 12:26 | 31.97439 | 35.41832 | 8852 ft | 277 kts | 291° |
| 2026-04-26 12:26 | 31.98296 | 35.39806 | 8615 ft | 276 kts | 291° |
| 2026-04-26 12:26 | 31.99145 | 35.37787 | 8389 ft | 275 kts | 291° |
| 2026-04-26 12:27 | 31.99994 | 35.35776 | 8166 ft | 272 kts | 291° |
| 2026-04-26 12:27 | 32.00834 | 35.33781 | 7959 ft | 272 kts | 291° |
| 2026-04-26 12:27 | 32.01675 | 35.31773 | 7734 ft | 274 kts | 291° |
| 2026-04-26 12:27 | 32.02519 | 35.29758 | 7495 ft | 275 kts | 292° |
| 2026-04-26 12:28 | 32.03363 | 35.27741 | 7263 ft | 274 kts | 292° |
| 2026-04-26 12:28 | 32.04201 | 35.25740 | 7033 ft | 270 kts | 292° |
| 2026-04-26 12:28 | 32.05017 | 35.23795 | 6817 ft | 267 kts | 291° |
| 2026-04-26 12:28 | 32.05828 | 35.21845 | 6584 ft | 263 kts | 291° |
| 2026-04-26 12:29 | 32.06634 | 35.19923 | 6395 ft | 262 kts | 291° |
| 2026-04-26 12:29 | 32.07442 | 35.17992 | 6156 ft | 263 kts | 292° |
| 2026-04-26 12:29 | 32.09855 | 35.14736 | 5669 ft | 270 kts | 319° |
| 2026-04-26 12:30 | 32.11335 | 35.13382 | 5397 ft | 268 kts | 318° |
| 2026-04-26 12:30 | 32.12768 | 35.12001 | 5139 ft | 259 kts | 313° |
| 2026-04-26 12:30 | 32.13930 | 35.10467 | 4811 ft | 243 kts | 304° |
| 2026-04-26 12:31 | 32.15888 | 35.07528 | 4353 ft | 219 kts | 304° |
| 2026-04-26 12:31 | 32.16817 | 35.06159 | 4118 ft | 209 kts | 306° |
| 2026-04-26 12:31 | 32.17667 | 35.04830 | 3893 ft | 194 kts | 293° |
| 2026-04-26 12:31 | 32.17891 | 35.03398 | 3721 ft | 170 kts | 258° |
| 2026-04-26 12:32 | 32.17511 | 35.02039 | 3554 ft | 175 kts | 239° |
| 2026-04-26 12:32 | 32.16851 | 35.00860 | 3405 ft | 169 kts | 233° |
| 2026-04-26 12:32 | 32.15281 | 34.99005 | 3074 ft | 162 kts | 216° |
| 2026-04-26 12:33 | 32.14328 | 34.98226 | 2893 ft | 167 kts | 213° |
| 2026-04-26 12:33 | 32.13329 | 34.97511 | 2653 ft | 169 kts | 211° |
| 2026-04-26 12:33 | 32.12310 | 34.96834 | 2461 ft | 164 kts | 210° |
| 2026-04-26 12:33 | 32.11359 | 34.96213 | 2226 ft | 152 kts | 209° |
| 2026-04-26 12:34 | 32.10472 | 34.95638 | 2054 ft | 142 kts | 211° |
| 2026-04-26 12:34 | 32.09610 | 34.95079 | 1860 ft | 141 kts | 211° |
| 2026-04-26 12:34 | 32.08767 | 34.94544 | 1667 ft | 133 kts | 211° |
| 2026-04-26 12:34 | 32.07963 | 34.94083 | 1484 ft | 128 kts | 213° |
| 2026-04-26 12:35 | 32.07166 | 34.93561 | 1366 ft | 134 kts | 214° |
| 2026-04-26 12:35 | 32.06360 | 34.92995 | 1203 ft | 136 kts | 217° |
| 2026-04-26 12:35 | 32.05571 | 34.92438 | 1079 ft | 129 kts | 214° |
| 2026-04-26 12:35 | 32.04789 | 34.91938 | 904 ft | 128 kts | 213° |
| 2026-04-26 12:36 | 32.03993 | 34.91437 | 684 ft | 133 kts | 212° |
| 2026-04-26 12:36 | 32.03201 | 34.90945 | 530 ft | 125 kts | 214° |
| 2026-04-26 12:36 | 32.02444 | 34.90418 | 369 ft | 130 kts | 212° |
| 2026-04-26 12:36 | 32.01639 | 34.89916 | 179 ft | 131 kts | 213° |
| 2026-04-26 12:37 | 32.00872 | 34.89409 | 123 ft | 114 kts | 208° |
| 2026-04-26 12:37 | 32.00395 | 34.89102 | 119 ft | 41 kts | 209° |
| 2026-04-26 12:37 | 32.00232 | 34.88977 | 119 ft | 26 kts | 224° |
| 2026-04-26 12:37 | 32.00127 | 34.88811 | 121 ft | 23 kts | 239° |
| 2026-04-26 12:38 | 32.00084 | 34.88678 | 122 ft | 14 kts | 274° |
| 2026-04-26 12:38 | 32.00131 | 34.88575 | 122 ft | 14 kts | 303° |
| 2026-04-26 12:38 | 32.00183 | 34.88474 | 121 ft | 14 kts | 301° |
| 2026-04-26 12:38 | 32.00235 | 34.88372 | 120 ft | 14 kts | 301° |
| 2026-04-26 12:39 | 32.00292 | 34.88263 | 120 ft | 20 kts | 302° |
| 2026-04-26 12:39 | 32.00377 | 34.88104 | 121 ft | 24 kts | 301° |
| 2026-04-26 12:39 | 32.00457 | 34.87949 | 121 ft | 19 kts | 301° |
| 2026-04-26 12:39 | 32.00475 | 34.87848 | 121 ft | 10 kts | 234° |
| 2026-04-26 12:40 | 32.00418 | 34.87798 | 121 ft | 10 kts | 211° |
| 2026-04-26 12:40 | 32.00344 | 34.87745 | 120 ft | 16 kts | 212° |
| 2026-04-26 12:40 | 32.00259 | 34.87684 | 122 ft | 12 kts | 211° |
| 2026-04-26 12:40 | 32.00203 | 34.87645 | 122 ft | 7 kts | 210° |
| 2026-04-26 12:41 | 32.00177 | 34.87606 | 120 ft | 5 kts | 260° |
| 2026-04-26 12:41 | 32.00174 | 34.87563 | 122 ft | 6 kts | 262° |
| 2026-04-26 12:41 | 32.00170 | 34.87532 | 123 ft | 2 kts | 261° |
| 2026-04-26 12:41 | 32.00169 | 34.87523 | 123 ft | 0 kts | 261° |